• Join FlightAware (Why Join?)
  • Login
  • US Flag 
07:14AM EST


 

Airport Tracker/Info


-or-


 

Live Flight TrackerFlight Track Log ✈ AFL1742 ✈ 04-Jan-2014 ✈ UUEE / SVO - UHSS / UUS

Flight Track Log - Related Links

Times and Time Zones

All times are in EST time to prevent confusion due to time zone crossing. See the AFL1742 flight status page for this flight to view local times or setup timezone preferences in your user account.

Time Position Orientation Groundspeed Altitude Reporting Facility
EST Latitude Longitude Course Direction KTS MPH feet Rate Location/Type
10:31AM 56.0995 37.7512 50° Northeast  Level Estimated
10:32AM 56.1769 37.9173 50° Northeast  Level Estimated
10:33AM 56.2541 38.0841 50° Northeast  Level Estimated
10:34AM 56.3311 38.2515 50° Northeast  Level Estimated
10:35AM 56.4078 38.4196 50° Northeast  Level Estimated
10:36AM 56.4843 38.5884 51° Northeast  Level Estimated
10:37AM 56.5606 38.7579 51° Northeast  Level Estimated
10:38AM 56.6366 38.9280 51° Northeast  Level Estimated
10:39AM 56.7124 39.0989 51° Northeast  Level Estimated
10:40AM 56.7880 39.2704 51° Northeast  Level Estimated
10:41AM 56.8634 39.4426 51° Northeast  Level Estimated
10:42AM 56.9385 39.6155 51° Northeast  Level Estimated
10:43AM 57.0134 39.7891 52° Northeast  Level Estimated
10:44AM 57.0880 39.9634 52° Northeast  Level Estimated
10:45AM 57.1624 40.1385 52° Northeast  Level Estimated
10:46AM 57.2365 40.3142 52° Northeast  Level Estimated
10:47AM 57.3104 40.4906 52° Northeast  Level Estimated
10:48AM 57.3841 40.6677 52° Northeast  Level Estimated
10:49AM 57.4575 40.8456 52° Northeast  Level Estimated
10:50AM 57.5306 41.0241 53° Northeast  Level Estimated
10:51AM 57.6035 41.2034 53° Northeast  Level Estimated
10:52AM 57.6762 41.3834 53° Northeast  Level Estimated
10:53AM 57.7485 41.5641 53° Northeast  Level Estimated
10:54AM 57.8192 41.7419 53° Northeast  Level Estimated
10:55AM 57.8897 41.9205 53° Northeast  Level Estimated
10:56AM 57.9599 42.0997 54° Northeast  Level Estimated
10:57AM 58.0298 42.2797 54° Northeast  Level Estimated
10:58AM 58.0995 42.4603 54° Northeast  Level Estimated
10:59AM 58.1689 42.6417 54° Northeast  Level Estimated
11:00AM 58.2381 42.8237 54° Northeast  Level Estimated
11:01AM 58.3070 43.0065 54° Northeast  Level Estimated
11:02AM 58.3757 43.1900 54° Northeast  Level Estimated
11:03AM 58.4441 43.3741 55° Northeast  Level Estimated
11:04AM 58.5122 43.5591 55° Northeast  Level Estimated
11:05AM 58.5801 43.7447 55° Northeast  Level Estimated
11:06AM 58.6476 43.9310 55° Northeast  Level Estimated
11:07AM 58.7150 44.1181 55° Northeast  Level Estimated
11:08AM 58.7820 44.3059 55° Northeast  Level Estimated
11:09AM 58.8488 44.4944 56° Northeast  Level Estimated
11:10AM 58.9153 44.6837 56° Northeast  Level Estimated
11:11AM 58.9815 44.8736 56° Northeast  Level Estimated
11:12AM 59.0474 45.0643 56° Northeast  Level Estimated
11:13AM 59.1131 45.2558 56° Northeast  Level Estimated
11:14AM 59.1785 45.4479 56° Northeast  Level Estimated
11:15AM 59.2436 45.6408 57° Northeast  Level Estimated
11:16AM 59.3084 45.8345 57° Northeast  Level Estimated
11:17AM 59.3729 46.0289 57° Northeast  Level Estimated
11:18AM 59.4371 46.2240 57° Northeast  Level Estimated
11:19AM 59.5011 46.4198 57° Northeast  Level Estimated
11:20AM 59.5647 46.6164 57° Northeast  Level Estimated
11:21AM 59.6281 46.8138 58° Northeast  Level Estimated
11:22AM 59.6911 47.0118 58° Northeast  Level Estimated
11:23AM 59.7539 47.2107 58° Northeast  Level Estimated
11:24AM 59.8163 47.4103 58° Northeast  Level Estimated
11:25AM 59.8784 47.6106 58° Northeast  Level Estimated
11:26AM 59.9403 47.8116 58° Northeast  Level Estimated
11:27AM 60.0018 48.0135 59° Northeast  Level Estimated
11:28AM 60.0630 48.2160 59° Northeast  Level Estimated
11:29AM 60.1240 48.4194 59° Northeast  Level Estimated
11:30AM 60.1846 48.6234 59° Northeast  Level Estimated
11:31AM 60.2448 48.8283 59° Northeast  Level Estimated
11:32AM 60.3048 49.0339 59° Northeast  Level Estimated
11:33AM 60.3644 49.2402 60° Northeast  Level Estimated
11:34AM 60.4238 49.4473 60° Northeast  Level Estimated
11:35AM 60.4828 49.6551 60° Northeast  Level Estimated
11:36AM 60.5415 49.8637 60° Northeast  Level Estimated
11:37AM 60.5998 50.0731 60° Northeast  Level Estimated
11:38AM 60.6579 50.2832 61° Northeast  Level Estimated
11:39AM 60.7156 50.4941 61° Northeast  Level Estimated
11:40AM 60.7729 50.7057 61° Northeast  Level Estimated
11:41AM 60.8299 50.9181 61° Northeast  Level Estimated
11:42AM 60.8866 51.1312 61° Northeast  Level Estimated
11:43AM 60.9430 51.3451 61° Northeast  Level Estimated
11:44AM 60.9990 51.5598 62° Northeast  Level Estimated
11:45AM 61.0547 51.7752 62° Northeast  Level Estimated
11:46AM 61.1100 51.9913 62° Northeast  Level Estimated
11:47AM 61.1650 52.2082 62° Northeast  Level Estimated
11:48AM 61.2196 52.4259 62° Northeast  Level Estimated
11:49AM 61.2739 52.6443 63° Northeast  Level Estimated
11:50AM 61.3278 52.8635 63° Northeast  Level Estimated
11:51AM 61.3814 53.0835 63° Northeast  Level Estimated
11:52AM 61.4346 53.3042 63° Northeast  Level Estimated
11:53AM 61.4875 53.5256 63° Northeast  Level Estimated
11:54AM 61.5400 53.7478 64° Northeast  Level Estimated
11:55AM 61.5921 53.9707 64° Northeast  Level Estimated
11:56AM 61.6439 54.1944 64° Northeast  Level Estimated
11:57AM 61.6953 54.4189 64° Northeast  Level Estimated
11:58AM 61.7464 54.6440 64° Northeast  Level Estimated
11:59AM 61.7970 54.8700 65° Northeast  Level Estimated
12:00PM 61.8473 55.0966 65° Northeast  Level Estimated
12:01PM 61.8973 55.3241 65° Northeast  Level Estimated
12:02PM 61.9468 55.5522 65° Northeast  Level Estimated
12:03PM 61.9960 55.7811 65° Northeast  Level Estimated
12:04PM 62.0448 56.0107 66° East  Level Estimated
12:05PM 62.0932 56.2411 66° East  Level Estimated
12:06PM 62.1412 56.4722 66° East  Level Estimated
12:07PM 62.1889 56.7040 66° East  Level Estimated
12:08PM 62.2361 56.9366 66° East  Level Estimated
12:09PM 62.2830 57.1699 67° East  Level Estimated
12:10PM 62.3294 57.4039 67° East  Level Estimated
12:11PM 62.3755 57.6386 67° East  Level Estimated
12:12PM 62.4212 57.8741 67° East  Level Estimated
12:13PM 62.4665 58.1102 67° East  Level Estimated
12:14PM 62.5113 58.3471 68° East  Level Estimated
12:15PM 62.5558 58.5847 68° East  Level Estimated
12:16PM 62.5999 58.8230 68° East  Level Estimated
12:17PM 62.6436 59.0620 68° East  Level Estimated
12:18PM 62.6868 59.3017 68° East  Level Estimated
12:19PM 62.7297 59.5421 69° East  Level Estimated
12:20PM 62.7721 59.7832 69° East  Level Estimated
12:21PM 62.8141 60.0250 69° East  Level Estimated
12:22PM 62.8557 60.2675 69° East  Level Estimated
12:23PM 62.8969 60.5107 70° East  Level Estimated
12:24PM 62.9377 60.7545 70° East  Level Estimated
12:25PM 62.9781 60.9991 70° East  Level Estimated
12:26PM 63.0180 61.2443 70° East  Level Estimated
12:27PM 63.0575 61.4901 70° East  Level Estimated
12:28PM 63.0965 61.7367 71° East  Level Estimated
12:29PM 63.1352 61.9838 71° East  Level Estimated
12:30PM 63.1734 62.2317 71° East  Level Estimated
12:31PM 63.2112 62.4802 71° East  Level Estimated
12:32PM 63.2485 62.7293 71° East  Level Estimated
12:33PM 63.2854 62.9791 72° East  Level Estimated
12:34PM 63.3219 63.2295 72° East  Level Estimated
12:35PM 63.3579 63.4806 72° East  Level Estimated
12:36PM 63.3935 63.7323 72° East  Level Estimated
12:37PM 63.4286 63.9846 73° East  Level Estimated
12:38PM 63.4633 64.2375 73° East  Level Estimated
12:39PM 63.4976 64.4910 73° East  Level Estimated
12:40PM 63.5314 64.7451 73° East  Level Estimated
12:41PM 63.5647 64.9999 74° East  Level Estimated
12:42PM 63.5976 65.2552 74° East  Level Estimated
12:43PM 63.6301 65.5111 74° East  Level Estimated
12:44PM 63.6621 65.7676 74° East  Level Estimated
12:45PM 63.6936 66.0246 74° East  Level Estimated
12:46PM 63.7247 66.2823 75° East  Level Estimated
12:47PM 63.7553 66.5405 75° East  Level Estimated
12:48PM 63.7854 66.7992 75° East  Level Estimated
12:49PM 63.8151 67.0585 75° East  Level Estimated
12:50PM 63.8443 67.3184 76° East  Level Estimated
12:51PM 63.8731 67.5787 76° East  Level Estimated
12:52PM 63.9014 67.8397 76° East  Level Estimated
12:53PM 63.9292 68.1011 76° East  Level Estimated
12:54PM 63.9565 68.3630 77° East  Level Estimated
12:55PM 63.9834 68.6255 77° East  Level Estimated
12:56PM 64.0098 68.8884 77° East  Level Estimated
12:57PM 64.0357 69.1519 77° East  Level Estimated
12:58PM 64.0611 69.4158 77° East  Level Estimated
12:59PM 64.0861 69.6802 78° East  Level Estimated
01:00PM 64.1105 69.9451 78° East  Level Estimated
01:01PM 64.1345 70.2104 78° East  Level Estimated
01:02PM 64.1581 70.4762 78° East  Level Estimated
01:03PM 64.1811 70.7425 79° East  Level Estimated
01:04PM 64.2036 71.0091 79° East  Level Estimated
01:05PM 64.2257 71.2763 79° East  Level Estimated
01:06PM 64.2472 71.5438 79° East  Level Estimated
01:07PM 64.2683 71.8117 80° East  Level Estimated
01:08PM 64.2889 72.0801 80° East  Level Estimated
01:09PM 64.3090 72.3488 80° East  Level Estimated
01:10PM 64.3286 72.6179 80° East  Level Estimated
01:11PM 64.3477 72.8875 81° East  Level Estimated
01:12PM 64.3663 73.1573 81° East  Level Estimated
01:13PM 64.3844 73.4276 81° East  Level Estimated
01:14PM 64.4020 73.6982 81° East  Level Estimated
01:15PM 64.4192 73.9691 82° East  Level Estimated
01:16PM 64.4358 74.2404 82° East  Level Estimated
01:17PM 64.4519 74.5119 82° East  Level Estimated
01:18PM 64.4675 74.7839 82° East  Level Estimated
01:19PM 64.4826 75.0561 83° East  Level Estimated
01:20PM 64.4972 75.3286 83° East  Level Estimated
01:21PM 64.5114 75.6014 83° East  Level Estimated
01:22PM 64.5249 75.8744 83° East  Level Estimated
01:23PM 64.5380 76.1478 84° East  Level Estimated
01:24PM 64.5506 76.4214 84° East  Level Estimated
01:25PM 64.5627 76.6952 84° East  Level Estimated
01:26PM 64.5743 76.9693 84° East  Level Estimated
01:27PM 64.5853 77.2436 85° East  Level Estimated
01:28PM 64.5959 77.5181 85° East  Level Estimated
01:29PM 64.6059 77.7929 85° East  Level Estimated
01:30PM 64.6155 78.0678 85° East  Level Estimated
01:31PM 64.6245 78.3429 86° East  Level Estimated
01:32PM 64.6330 78.6182 86° East  Level Estimated
01:33PM 64.6410 78.8937 86° East  Level Estimated
01:34PM 64.6485 79.1693 86° East  Level Estimated
01:35PM 64.6554 79.4451 86° East  Level Estimated
01:36PM 64.6619 79.7210 87° East  Level Estimated
01:37PM 64.6678 79.9970 87° East  Level Estimated
01:38PM 64.6733 80.2732 87° East  Level Estimated
01:39PM 64.6782 80.5494 87° East  Level Estimated
01:40PM 64.6826 80.8258 88° East  Level Estimated
01:41PM 64.6865 81.1022 88° East  Level Estimated
01:42PM 64.6898 81.3787 88° East  Level Estimated
01:43PM 64.6927 81.6553 88° East  Level Estimated
01:44PM 64.6950 81.9319 89° East  Level Estimated
01:45PM 64.6969 82.2086 89° East  Level Estimated
01:46PM 64.6982 82.4853 89° East  Level Estimated
01:47PM 64.6989 82.7620 89° East  Level Estimated
01:48PM 64.6992 83.0387 90° East  Level Estimated
01:49PM 64.6990 83.3155 90° East  Level Estimated
01:50PM 64.6982 83.5922 90° East  Level Estimated
01:51PM 64.6969 83.8689 90° East  Level Estimated
01:52PM 64.6951 84.1455 91° East  Level Estimated
01:53PM 64.6928 84.4222 91° East  Level Estimated
01:54PM 64.6900 84.6987 91° East  Level Estimated
01:55PM 64.6867 84.9753 91° East  Level Estimated
01:56PM 64.6828 85.2517 92° East  Level Estimated
01:57PM 64.6784 85.5280 92° East  Level Estimated
01:58PM 64.6735 85.8043 92° East  Level Estimated
01:59PM 64.6681 86.0805 92° East  Level Estimated
02:00PM 64.6622 86.3565 93° East  Level Estimated
02:01PM 64.6558 86.6324 93° East  Level Estimated
02:02PM 64.6488 86.9082 93° East  Level Estimated
02:03PM 64.6414 87.1838 93° East  Level Estimated
02:04PM 64.6334 87.4593 94° East  Level Estimated
02:05PM 64.6249 87.7346 94° East  Level Estimated
02:06PM 64.6159 88.0097 94° East  Level Estimated
02:07PM 64.6064 88.2847 94° East  Level Estimated
02:08PM 64.5964 88.5594 95° East  Level Estimated
02:09PM 64.5859 88.8339 95° East  Level Estimated
02:10PM 64.5748 89.1083 95° East  Level Estimated
02:11PM 64.5633 89.3824 95° East  Level Estimated
02:12PM 64.5512 89.6562 96° East  Level Estimated
02:13PM 64.5387 89.9298 96° East  Level Estimated
02:14PM 64.5256 90.2032 96° East  Level Estimated
02:15PM 64.5120 90.4763 96° East  Level Estimated
02:16PM 64.4979 90.7491 97° East  Level Estimated
02:17PM 64.4834 91.0216 97° East  Level Estimated
02:18PM 64.4683 91.2938 97° East  Level Estimated
02:19PM 64.4527 91.5657 97° East  Level Estimated
02:20PM 64.4366 91.8373 98° East  Level Estimated
02:21PM 64.4200 92.1086 98° East  Level Estimated
02:22PM 64.4029 92.3796 98° East  Level Estimated
02:23PM 64.3853 92.6502 98° East  Level Estimated
02:24PM 64.3672 92.9204 99° East  Level Estimated
02:25PM 64.3487 93.1904 99° East  Level Estimated
02:26PM 64.3296 93.4599 99° East  Level Estimated
02:27PM 64.3100 93.7290 99° East  Level Estimated
02:28PM 64.2899 93.9978 100° East  Level Estimated
02:29PM 64.2694 94.2662 100° East  Level Estimated
02:30PM 64.2483 94.5341 100° East  Level Estimated
02:31PM 64.2268 94.8017 100° East  Level Estimated
02:32PM 64.2048 95.0688 101° East  Level Estimated
02:33PM 64.1822 95.3355 101° East  Level Estimated
02:34PM 64.1592 95.6018 101° East  Level Estimated
02:35PM 64.1357 95.8676 101° East  Level Estimated
02:36PM 64.1118 96.1329 102° East  Level Estimated
02:37PM 64.0873 96.3978 102° East  Level Estimated
02:38PM 64.0624 96.6623 102° East  Level Estimated
02:39PM 64.0370 96.9262 102° East  Level Estimated
02:40PM 64.0111 97.1897 103° East  Level Estimated
02:41PM 63.9847 97.4527 103° East  Level Estimated
02:42PM 63.9579 97.7152 103° East  Level Estimated
02:43PM 63.9306 97.9771 103° East  Level Estimated
02:44PM 63.9028 98.2386 103° East  Level Estimated
02:45PM 63.8745 98.4995 104° East  Level Estimated
02:46PM 63.8458 98.7599 104° East  Level Estimated
02:47PM 63.8166 99.0198 104° East  Level Estimated
02:48PM 63.7870 99.2791 104° East  Level Estimated
02:49PM 63.7568 99.5379 105° East  Level Estimated
02:50PM 63.7263 99.7961 105° East  Level Estimated
02:51PM 63.6952 100.0538 105° East  Level Estimated
02:52PM 63.6637 100.3109 105° East  Level Estimated
02:53PM 63.6317 100.5674 106° East  Level Estimated
02:54PM 63.5993 100.8233 106° East  Level Estimated
02:55PM 63.5665 101.0787 106° East  Level Estimated
02:56PM 63.5331 101.3335 106° East  Level Estimated
02:57PM 63.4994 101.5876 106° East  Level Estimated
02:58PM 63.4651 101.8412 107° East  Level Estimated
02:59PM 63.4305 102.0941 107° East  Level Estimated
03:00PM 63.3953 102.3465 107° East  Level Estimated
03:01PM 63.3598 102.5982 107° East  Level Estimated
03:02PM 63.3238 102.8492 108° East  Level Estimated
03:03PM 63.2873 103.0997 108° East  Level Estimated
03:04PM 63.2505 103.3495 108° East  Level Estimated
03:05PM 63.2131 103.5987 108° East  Level Estimated
03:06PM 63.1754 103.8472 109° East  Level Estimated
03:07PM 63.1372 104.0951 109° East  Level Estimated
03:08PM 63.0986 104.3423 109° East  Level Estimated
03:09PM 63.0595 104.5889 109° East  Level Estimated
03:10PM 63.0200 104.8348 109° East  Level Estimated
03:11PM 62.9801 105.0800 110° East  Level Estimated
03:12PM 62.9398 105.3246 110° East  Level Estimated
03:13PM 62.8991 105.5685 110° East  Level Estimated
03:14PM 62.8579 105.8117 110° East  Level Estimated
03:15PM 62.8163 106.0542 110° East  Level Estimated
03:16PM 62.7743 106.2960 111° Southeast  Level Estimated
03:17PM 62.7319 106.5371 111° Southeast  Level Estimated
03:18PM 62.6891 106.7776 111° Southeast  Level Estimated
03:19PM 62.6458 107.0173 111° Southeast  Level Estimated
03:20PM 62.6022 107.2564 112° Southeast  Level Estimated
03:21PM 62.5582 107.4947 112° Southeast  Level Estimated
03:22PM 62.5137 107.7323 112° Southeast  Level Estimated
03:23PM 62.4688 107.9693 112° Southeast  Level Estimated
03:24PM 62.4236 108.2055 112° Southeast  Level Estimated
03:25PM 62.3779 108.4410 113° Southeast  Level Estimated
03:26PM 62.3319 108.6757 113° Southeast  Level Estimated
03:27PM 62.2854 108.9098 113° Southeast  Level Estimated
03:28PM 62.2386 109.1431 113° Southeast  Level Estimated
03:29PM 62.1913 109.3757 113° Southeast  Level Estimated
03:30PM 62.1437 109.6076 114° Southeast  Level Estimated
03:31PM 62.0957 109.8387 114° Southeast  Level Estimated
03:32PM 62.0473 110.0691 114° Southeast  Level Estimated
03:33PM 61.9986 110.2988 114° Southeast  Level Estimated
03:34PM 61.9494 110.5277 114° Southeast  Level Estimated
03:35PM 61.8999 110.7559 115° Southeast  Level Estimated
03:36PM 61.8500 110.9834 115° Southeast  Level Estimated
03:37PM 61.7997 111.2101 115° Southeast  Level Estimated
03:38PM 61.7491 111.4360 115° Southeast  Level Estimated
03:39PM 61.6980 111.6613 115° Southeast  Level Estimated
03:40PM 61.6466 111.8857 116° Southeast  Level Estimated
03:41PM 61.5949 112.1095 116° Southeast  Level Estimated
03:42PM 61.5428 112.3325 116° Southeast  Level Estimated
03:43PM 61.4903 112.5547 116° Southeast  Level Estimated
03:44PM 61.4374 112.7762 116° Southeast  Level Estimated
03:45PM 61.3842 112.9969 117° Southeast  Level Estimated
03:46PM 61.3307 113.2169 117° Southeast  Level Estimated
03:47PM 61.2768 113.4361 117° Southeast  Level Estimated
03:48PM 61.2225 113.6546 117° Southeast  Level Estimated
03:49PM 61.1679 113.8723 117° Southeast  Level Estimated
03:50PM 61.1129 114.0892 118° Southeast  Level Estimated
03:51PM 61.0576 114.3054 118° Southeast  Level Estimated
03:52PM 61.0019 114.5209 118° Southeast  Level Estimated
03:53PM 60.9459 114.7356 118° Southeast  Level Estimated
03:54PM 60.8896 114.9495 118° Southeast  Level Estimated
03:55PM 60.8329 115.1627 119° Southeast  Level Estimated
03:56PM 60.7759 115.3751 119° Southeast  Level Estimated
03:57PM 60.7186 115.5868 119° Southeast  Level Estimated
03:58PM 60.6609 115.7977 119° Southeast  Level Estimated
03:59PM 60.6029 116.0078 119° Southeast  Level Estimated
04:00PM 60.5445 116.2172 119° Southeast  Level Estimated
04:01PM 60.4859 116.4259 120° Southeast  Level Estimated
04:02PM 60.4269 116.6337 120° Southeast  Level Estimated
04:03PM 60.3676 116.8409 120° Southeast  Level Estimated
04:04PM 60.3079 117.0472 120° Southeast  Level Estimated
04:05PM 60.2480 117.2529 120° Southeast  Level Estimated
04:06PM 60.1877 117.4577 121° Southeast  Level Estimated
04:07PM 60.1271 117.6618 121° Southeast  Level Estimated
04:08PM 60.0662 117.8652 121° Southeast  Level Estimated
04:09PM 60.0050 118.0678 121° Southeast  Level Estimated
04:10PM 59.9435 118.2697 121° Southeast  Level Estimated
04:11PM 59.8817 118.4708 121° Southeast  Level Estimated
04:12PM 59.8196 118.6711 122° Southeast  Level Estimated
04:13PM 59.7571 118.8708 122° Southeast  Level Estimated
04:14PM 59.6944 119.0696 122° Southeast  Level Estimated
04:15PM 59.6314 119.2678 122° Southeast  Level Estimated
04:16PM 59.5680 119.4651 122° Southeast  Level Estimated
04:17PM 59.5044 119.6618 122° Southeast  Level Estimated
04:18PM 59.4405 119.8577 123° Southeast  Level Estimated
04:19PM 59.3763 120.0528 123° Southeast  Level Estimated
04:20PM 59.3118 120.2472 123° Southeast  Level Estimated
04:21PM 59.2470 120.4409 123° Southeast  Level Estimated
04:22PM 59.1819 120.6338 123° Southeast  Level Estimated
04:23PM 59.1166 120.8260 123° Southeast  Level Estimated
04:24PM 59.0509 121.0175 124° Southeast  Level Estimated
04:25PM 58.9850 121.2083 124° Southeast  Level Estimated
04:26PM 58.9188 121.3983 124° Southeast  Level Estimated
04:27PM 58.8523 121.5875 124° Southeast  Level Estimated
04:28PM 58.7855 121.7761 124° Southeast  Level Estimated
04:29PM 58.7185 121.9639 124° Southeast  Level Estimated
04:30PM 58.6512 122.1510 125° Southeast  Level Estimated
04:31PM 58.5836 122.3374 125° Southeast  Level Estimated
04:32PM 58.5158 122.5231 125° Southeast  Level Estimated
04:33PM 58.4477 122.7080 125° Southeast  Level Estimated
04:34PM 58.3793 122.8923 125° Southeast  Level Estimated
04:35PM 58.3106 123.0758 125° Southeast  Level Estimated
04:36PM 58.2417 123.2586 126° Southeast  Level Estimated
04:37PM 58.1726 123.4407 126° Southeast  Level Estimated
04:38PM 58.1031 123.6221 126° Southeast  Level Estimated
04:39PM 58.0335 123.8027 126° Southeast  Level Estimated
04:40PM 57.9635 123.9827 126° Southeast  Level Estimated
04:41PM 57.8934 124.1620 126° Southeast  Level Estimated
04:42PM 57.8229 124.3406 126° Southeast  Level Estimated
04:43PM 57.7522 124.5184 127° Southeast  Level Estimated
04:44PM 57.6813 124.6956 127° Southeast  Level Estimated
04:45PM 57.6101 124.8721 127° Southeast  Level Estimated
04:46PM 57.5387 125.0479 127° Southeast  Level Estimated
04:47PM 57.4670 125.2230 127° Southeast  Level Estimated
04:48PM 57.3951 125.3974 127° Southeast  Level Estimated
04:49PM 57.3230 125.5712 128° Southeast  Level Estimated
04:50PM 57.2506 125.7442 128° Southeast  Level Estimated
04:51PM 57.1779 125.9166 128° Southeast  Level Estimated
04:52PM 57.1051 126.0883 128° Southeast  Level Estimated
04:53PM 57.0320 126.2593 128° Southeast  Level Estimated
04:54PM 56.9586 126.4297 128° Southeast  Level Estimated
04:55PM 56.8851 126.5993 128° Southeast  Level Estimated
04:56PM 56.8113 126.7683 129° Southeast  Level Estimated
04:57PM 56.7373 126.9367 129° Southeast  Level Estimated
04:58PM 56.6631 127.1044 129° Southeast  Level Estimated
04:59PM 56.5886 127.2714 129° Southeast  Level Estimated
05:00PM 56.5139 127.4378 129° Southeast  Level Estimated
05:01PM 56.4390 127.6035 129° Southeast  Level Estimated
05:02PM 56.3639 127.7685 129° Southeast  Level Estimated
05:03PM 56.2885 127.9330 130° Southeast  Level Estimated
05:04PM 56.2130 128.0967 130° Southeast  Level Estimated
05:05PM 56.1372 128.2598 130° Southeast  Level Estimated
05:06PM 56.0612 128.4223 130° Southeast  Level Estimated
05:07PM 55.9850 128.5841 130° Southeast  Level Estimated
05:08PM 55.9086 128.7453 130° Southeast  Level Estimated
05:09PM 55.8319 128.9059 130° Southeast  Level Estimated
05:10PM 55.7551 129.0658 130° Southeast  Level Estimated
05:11PM 55.6780 129.2251 131° Southeast  Level Estimated
05:12PM 55.6008 129.3838 131° Southeast  Level Estimated
05:13PM 55.5233 129.5418 131° Southeast  Level Estimated
05:14PM 55.4457 129.6992 131° Southeast  Level Estimated
05:15PM 55.3678 129.8560 131° Southeast  Level Estimated
05:16PM 55.2898 130.0122 131° Southeast  Level Estimated
05:17PM 55.2115 130.1678 131° Southeast  Level Estimated
05:18PM 55.1331 130.3228 131° Southeast  Level Estimated
05:19PM 55.0544 130.4771 132° Southeast  Level Estimated
05:20PM 54.9756 130.6309 132° Southeast  Level Estimated
05:21PM 54.8965 130.7840 132° Southeast  Level Estimated
05:22PM 54.8173 130.9366 132° Southeast  Level Estimated
05:23PM 54.7379 131.0885 132° Southeast  Level Estimated
05:24PM 54.6583 131.2399 132° Southeast  Level Estimated
05:25PM 54.5785 131.3906 132° Southeast  Level Estimated
05:26PM 54.4985 131.5408 132° Southeast  Level Estimated
05:27PM 54.4184 131.6904 133° Southeast  Level Estimated
05:28PM 54.3380 131.8394 133° Southeast  Level Estimated
05:29PM 54.2575 131.9878 133° Southeast  Level Estimated
05:30PM 54.1768 132.1356 133° Southeast  Level Estimated
05:31PM 54.0959 132.2829 133° Southeast  Level Estimated
05:32PM 54.0148 132.4296 133° Southeast  Level Estimated
05:33PM 53.9336 132.5757 133° Southeast  Level Estimated
05:34PM 53.8521 132.7212 133° Southeast  Level Estimated
05:35PM 53.7705 132.8662 134° Southeast  Level Estimated
05:36PM 53.6887 133.0106 134° Southeast  Level Estimated
05:37PM 53.6068 133.1545 134° Southeast  Level Estimated
05:38PM 53.5247 133.2978 134° Southeast  Level Estimated
05:39PM 53.4424 133.4405 134° Southeast  Level Estimated
05:40PM 53.3599 133.5827 134° Southeast  Level Estimated
05:41PM 53.2773 133.7243 134° Southeast  Level Estimated
05:42PM 53.1945 133.8654 134° Southeast  Level Estimated
05:43PM 53.1115 134.0060 134° Southeast  Level Estimated
05:44PM 53.0284 134.1460 135° Southeast  Level Estimated
05:45PM 52.9451 134.2855 135° Southeast  Level Estimated
05:46PM 52.8616 134.4244 135° Southeast  Level Estimated
05:47PM 52.7780 134.5628 135° Southeast  Level Estimated
05:48PM 52.6942 134.7007 135° Southeast  Level Estimated
05:49PM 52.6103 134.8380 135° Southeast  Level Estimated
05:50PM 52.5262 134.9748 135° Southeast  Level Estimated
05:51PM 52.4420 135.1111 135° Southeast  Level Estimated
05:52PM 52.3576 135.2469 135° Southeast  Level Estimated
05:53PM 52.2730 135.3821 136° Southeast  Level Estimated
05:54PM 52.1883 135.5169 136° Southeast  Level Estimated
05:55PM 52.1034 135.6511 136° Southeast  Level Estimated
05:56PM 52.0184 135.7848 136° Southeast  Level Estimated
05:57PM 51.9332 135.9180 136° Southeast  Level Estimated
05:58PM 51.8479 136.0507 136° Southeast  Level Estimated
05:59PM 51.7624 136.1829 136° Southeast  Level Estimated
06:00PM 51.6768 136.3146 136° Southeast  Level Estimated
06:01PM 51.5910 136.4458 136° Southeast  Level Estimated
06:02PM 51.5051 136.5765 137° Southeast  Level Estimated
06:03PM 51.4191 136.7067 137° Southeast  Level Estimated
06:04PM 51.3329 136.8364 137° Southeast  Level Estimated
06:05PM 51.2465 136.9656 137° Southeast  Level Estimated
06:06PM 51.1600 137.0944 137° Southeast  Level Estimated
06:07PM 51.0734 137.2227 137° Southeast  Level Estimated
06:08PM 50.9866 137.3504 137° Southeast  Level Estimated
06:09PM 50.8997 137.4778 137° Southeast  Level Estimated
06:10PM 50.8127 137.6046 137° Southeast  Level Estimated
06:11PM 50.7255 137.7309 137° Southeast  Level Estimated
06:12PM 50.6382 137.8568 138° Southeast  Level Estimated
06:13PM 50.5508 137.9823 138° Southeast  Level Estimated
06:14PM 50.4632 138.1072 138° Southeast  Level Estimated
06:15PM 50.3755 138.2317 138° Southeast  Level Estimated
06:16PM 50.2876 138.3558 138° Southeast  Level Estimated
06:17PM 50.1996 138.4793 138° Southeast  Level Estimated
06:18PM 50.1115 138.6025 138° Southeast  Level Estimated
06:19PM 50.0233 138.7251 138° Southeast  Level Estimated
06:20PM 49.9349 138.8474 138° Southeast  Level Estimated
06:21PM 49.8464 138.9691 138° Southeast  Level Estimated
06:22PM 49.7578 139.0905 138° Southeast  Level Estimated
06:23PM 49.6690 139.2114 139° Southeast  Level Estimated
06:24PM 49.5801 139.3318 139° Southeast  Level Estimated
06:25PM 49.4911 139.4518 139° Southeast  Level Estimated
06:26PM 49.4020 139.5714 139° Southeast  Level Estimated
06:27PM 49.3128 139.6905 139° Southeast  Level Estimated
06:28PM 49.2234 139.8092 139° Southeast  Level Estimated
06:29PM 49.1339 139.9275 139° Southeast  Level Estimated
06:30PM 49.0443 140.0454 139° Southeast  Level Estimated
06:31PM 48.9546 140.1628 139° Southeast  Level Estimated
06:32PM 48.8647 140.2798 139° Southeast  Level Estimated
06:33PM 48.7747 140.3964 139° Southeast  Level Estimated
06:34PM 48.6847 140.5126 140° Southeast  Level Estimated
06:35PM 48.5945 140.6283 140° Southeast  Level Estimated
06:36PM 48.5041 140.7437 140° Southeast  Level Estimated
06:37PM 48.4137 140.8586 140° Southeast  Level Estimated
06:38PM 48.3232 140.9731 140° Southeast  Level Estimated
06:39PM 48.2325 141.0872 140° Southeast  Level Estimated
06:40PM 48.1417 141.2009 140° Southeast  Level Estimated
06:41PM 48.0508 141.3143 140° Southeast  Level Estimated
06:42PM 47.9598 141.4272 140° Southeast  Level Estimated
06:43PM 47.8687 141.5397 140° Southeast  Level Estimated
06:44PM 47.7775 141.6518 140° Southeast  Level Estimated
06:45PM 47.6862 141.7635 141° Southeast  Level Estimated
06:46PM 47.5948 141.8748 141° Southeast  Level Estimated
06:47PM 47.5032 141.9858 141° Southeast  Level Estimated
06:48PM 47.4116 142.0963 141° Southeast  Level Estimated
06:49PM 47.3198 142.2065 141° Southeast  Level Estimated
06:50PM 47.2280 142.3163 141° Southeast  Level Estimated
06:51PM 47.1360 142.4257 141° Southeast  Level Estimated
06:52PM 47.0439 142.5348 141° Southeast  Level Estimated